createdAt,value
2018-05-10T00:02:10.369Z,13.10
2018-05-10T00:04:38.743Z,13.10
2018-05-10T00:07:06.888Z,13.10
2018-05-10T00:09:35.059Z,13.10
2018-05-10T00:12:03.210Z,13.20
2018-05-10T00:14:31.379Z,13.30
2018-05-10T00:16:59.532Z,13.40
2018-05-10T00:19:27.710Z,13.40
2018-05-10T00:21:55.862Z,13.50
2018-05-10T00:24:24.109Z,13.60
2018-05-10T00:26:52.223Z,13.60
2018-05-10T00:29:20.376Z,13.70
2018-05-10T00:31:48.552Z,13.70
2018-05-10T00:34:16.704Z,13.70
2018-05-10T00:36:44.877Z,13.70
2018-05-10T00:39:13.024Z,13.70
2018-05-10T00:41:41.213Z,13.60
2018-05-10T00:44:09.369Z,13.60
2018-05-10T00:46:37.545Z,13.60
2018-05-10T00:49:05.696Z,13.50
2018-05-10T00:51:33.872Z,13.50
2018-05-10T00:54:02.022Z,13.40
2018-05-10T00:56:30.385Z,13.40
2018-05-10T00:58:59.301Z,13.30
2018-05-10T01:01:27.489Z,13.30
2018-05-10T01:03:55.673Z,13.30
2018-05-10T01:06:23.860Z,13.20
2018-05-10T01:08:52.013Z,13.10
2018-05-10T01:11:20.182Z,13.10
2018-05-10T01:13:48.333Z,13.00
2018-05-10T01:16:16.509Z,13.00
2018-05-10T01:18:44.663Z,12.90
2018-05-10T01:21:12.856Z,12.90
2018-05-10T01:23:41.012Z,12.80
2018-05-10T01:26:09.943Z,12.70
2018-05-10T01:28:38.119Z,12.70
2018-05-10T01:31:06.269Z,12.70
2018-05-10T01:33:34.445Z,12.60
2018-05-10T01:36:19.333Z,12.60
2018-05-10T01:38:47.513Z,12.60
2018-05-10T01:41:15.662Z,12.60
2018-05-10T01:43:43.831Z,12.60
2018-05-10T01:46:11.990Z,12.60
2018-05-10T01:48:40.159Z,12.60
2018-05-10T01:51:09.088Z,12.50
2018-05-10T01:53:37.264Z,12.40
2018-05-10T01:56:05.418Z,12.40
2018-05-10T01:58:33.601Z,12.40
2018-05-10T02:01:01.766Z,12.40
2018-05-10T02:03:29.958Z,12.40
2018-05-10T02:05:58.106Z,12.40
2018-05-10T02:08:26.282Z,12.40
2018-05-10T02:10:54.434Z,12.40
2018-05-10T02:13:22.605Z,12.30
2018-05-10T02:15:50.759Z,12.30
2018-05-10T02:18:18.948Z,12.20
2018-05-10T02:20:47.104Z,12.20
2018-05-10T02:23:15.251Z,12.20
2018-05-10T02:25:43.428Z,12.20
2018-05-10T02:28:11.572Z,12.20
2018-05-10T02:30:39.751Z,12.10
2018-05-10T02:33:09.368Z,12.10
2018-05-10T02:35:37.553Z,12.10
2018-05-10T02:38:05.699Z,12.10
2018-05-10T02:40:33.882Z,12.00
2018-05-10T02:43:02.737Z,12.00
2018-05-10T02:45:31.553Z,12.00
2018-05-10T02:47:59.696Z,12.00
2018-05-10T02:50:27.882Z,12.00
2018-05-10T02:52:56.035Z,11.90
2018-05-10T02:55:24.214Z,11.90
2018-05-10T02:57:52.372Z,11.90
2018-05-10T03:00:20.556Z,11.90
2018-05-10T03:02:48.701Z,11.80
2018-05-10T03:05:16.890Z,11.80
2018-05-10T03:07:45.040Z,11.80
2018-05-10T03:10:13.231Z,11.90
2018-05-10T03:12:41.389Z,11.90
2018-05-10T03:15:09.564Z,11.90
2018-05-10T03:17:37.726Z,11.90
2018-05-10T03:20:05.901Z,11.80
2018-05-10T03:22:34.056Z,11.90
2018-05-10T03:25:02.251Z,11.90
2018-05-10T03:27:30.411Z,11.80
2018-05-10T03:29:58.583Z,11.90
2018-05-10T03:32:26.759Z,11.80
2018-05-10T03:34:54.938Z,11.90
2018-05-10T03:37:23.081Z,11.90
2018-05-10T03:39:51.253Z,11.90
2018-05-10T03:42:19.404Z,12.00
2018-05-10T03:44:47.576Z,12.00
2018-05-10T03:47:15.724Z,12.10
2018-05-10T03:49:43.896Z,12.10
2018-05-10T03:52:12.052Z,12.10
2018-05-10T03:54:40.246Z,12.20
2018-05-10T03:57:08.402Z,12.20
2018-05-10T03:59:36.562Z,12.20
2018-05-10T04:02:05.514Z,12.20
2018-05-10T04:04:45.619Z,12.20
2018-05-10T04:07:25.396Z,12.20
2018-05-10T04:10:05.268Z,12.20
2018-05-10T04:12:33.420Z,12.20
2018-05-10T04:15:01.595Z,12.20
2018-05-10T04:17:29.747Z,12.20
2018-05-10T04:19:57.925Z,12.30
2018-05-10T04:22:26.076Z,12.30
2018-05-10T04:24:54.228Z,12.40
2018-05-10T04:27:22.400Z,12.50
2018-05-10T04:29:50.550Z,12.60
2018-05-10T04:32:18.725Z,12.70
2018-05-10T04:34:46.878Z,12.70
2018-05-10T04:37:15.048Z,12.80
2018-05-10T04:39:43.200Z,12.90
2018-05-10T04:42:11.392Z,13.00
2018-05-10T04:44:39.542Z,13.10
2018-05-10T04:47:07.744Z,13.20
2018-05-10T04:49:35.898Z,13.30
2018-05-10T04:52:04.072Z,13.40
2018-05-10T04:54:32.225Z,13.50
2018-05-10T04:57:01.164Z,13.70
2018-05-10T04:59:29.313Z,13.70
2018-05-10T05:01:57.488Z,13.80
2018-05-10T05:04:25.648Z,14.00
2018-05-10T05:06:53.829Z,14.10
2018-05-10T05:09:21.986Z,14.30
2018-05-10T05:11:50.213Z,14.40
2018-05-10T05:14:18.336Z,14.50
2018-05-10T05:16:47.273Z,14.70
2018-05-10T05:19:15.421Z,14.70
2018-05-10T05:21:44.028Z,14.80
2018-05-10T05:24:12.180Z,15.00
2018-05-10T05:26:40.356Z,15.10
2018-05-10T05:29:08.503Z,15.30
2018-05-10T05:31:36.685Z,15.50
2018-05-10T05:34:05.600Z,15.70
2018-05-10T05:36:33.821Z,15.60
2018-05-10T05:39:01.959Z,15.70
2018-05-10T05:41:30.247Z,15.70
2018-05-10T05:43:59.097Z,15.80
2018-05-10T05:46:27.274Z,15.80
2018-05-10T05:48:55.436Z,15.80
2018-05-10T05:51:23.613Z,15.80
2018-05-10T05:53:51.764Z,15.90
2018-05-10T05:56:19.950Z,15.90
2018-05-10T05:58:48.218Z,16.00
2018-05-10T06:01:17.163Z,16.00
2018-05-10T06:03:45.316Z,16.00
2018-05-10T06:06:13.536Z,16.10
2018-05-10T06:08:41.683Z,16.20
2018-05-10T06:11:09.839Z,16.20
2018-05-10T06:13:38.015Z,16.20
2018-05-10T06:16:06.184Z,16.20
2018-05-10T06:18:34.840Z,16.40
2018-05-10T06:21:03.005Z,16.40
2018-05-10T06:23:31.227Z,16.50
2018-05-10T06:25:59.413Z,16.60
2018-05-10T06:28:27.592Z,16.60
2018-05-10T06:30:56.716Z,16.70
2018-05-10T06:33:24.897Z,16.80
2018-05-10T06:35:53.056Z,16.80
2018-05-10T06:38:22.024Z,16.90
2018-05-10T06:40:50.376Z,16.90
2018-05-10T06:43:18.702Z,17.00
2018-05-10T06:45:46.970Z,17.00
2018-05-10T06:48:16.059Z,17.10
2018-05-10T06:50:44.280Z,17.20
2018-05-10T06:53:12.577Z,17.20
2018-05-10T06:55:42.109Z,17.20
2018-05-10T06:58:10.285Z,17.20
2018-05-10T07:00:38.439Z,17.20
2018-05-10T07:03:06.747Z,17.20
2018-05-10T07:05:34.928Z,17.20
2018-05-10T07:08:04.054Z,17.30
2018-05-10T07:10:32.409Z,17.30
2018-05-10T07:13:01.431Z,17.40
2018-05-10T07:15:30.396Z,17.40
2018-05-10T07:17:59.453Z,17.40
2018-05-10T07:20:27.830Z,17.40
2018-05-10T07:23:07.255Z,17.50
2018-05-10T07:25:35.433Z,17.40
2018-05-10T07:28:03.674Z,17.50
2018-05-10T07:30:36.996Z,17.40
2018-05-10T07:33:05.175Z,17.40
2018-05-10T07:35:33.328Z,17.40
2018-05-10T07:38:01.534Z,17.40
2018-05-10T07:40:29.710Z,17.40
2018-05-10T07:42:58.693Z,17.40
2018-05-10T07:45:27.779Z,17.40
2018-05-10T07:47:55.964Z,17.40
2018-05-10T07:50:24.523Z,17.40
2018-05-10T07:52:52.882Z,17.50
2018-05-10T07:55:21.827Z,17.60
2018-05-10T07:57:51.009Z,17.50
2018-05-10T08:00:19.489Z,17.60
2018-05-10T08:02:47.696Z,17.60
2018-05-10T08:05:15.896Z,17.70
2018-05-10T08:07:44.884Z,17.70
2018-05-10T08:10:13.073Z,17.80
2018-05-10T08:12:41.844Z,17.80
2018-05-10T08:15:10.013Z,17.80
2018-05-10T08:17:38.248Z,17.90
2018-05-10T08:20:06.540Z,18.00
2018-05-10T08:22:34.707Z,18.10
2018-05-10T08:25:02.980Z,18.20
2018-05-10T08:27:52.591Z,18.40
2018-05-10T08:30:20.812Z,18.60
2018-05-10T08:32:50.620Z,19.10
2018-05-10T08:35:19.539Z,19.60
2018-05-10T08:37:47.723Z,19.60
2018-05-10T08:40:15.909Z,20.10
2018-05-10T08:42:44.073Z,20.60
2018-05-10T08:45:12.257Z,20.90
2018-05-10T08:47:40.411Z,21.20
2018-05-10T08:50:08.997Z,21.40
2018-05-10T08:52:37.367Z,21.50
2018-05-10T08:55:05.622Z,21.70
2018-05-10T08:57:33.819Z,21.80
2018-05-10T09:00:02.033Z,21.90
2018-05-10T09:02:30.734Z,21.90
2018-05-10T09:04:59.191Z,21.90
2018-05-10T09:07:27.374Z,22.10
2018-05-10T09:09:56.398Z,22.40
2018-05-10T09:12:25.324Z,22.40
2018-05-10T09:14:53.535Z,22.40
2018-05-10T09:17:21.732Z,22.30
2018-05-10T09:19:50.718Z,22.30
2018-05-10T09:22:18.880Z,22.30
2018-05-10T09:24:47.069Z,22.50
2018-05-10T09:27:15.349Z,22.60
2018-05-10T09:29:43.585Z,22.70
2018-05-10T09:32:11.758Z,22.60
2018-05-10T09:34:39.948Z,22.70
2018-05-10T09:37:08.108Z,22.70
2018-05-10T09:39:36.318Z,22.70
2018-05-10T09:42:05.490Z,23.00
2018-05-10T09:44:33.724Z,22.90
2018-05-10T09:47:01.881Z,23.10
2018-05-10T09:49:30.065Z,23.10
2018-05-10T09:51:58.221Z,23.30
2018-05-10T09:54:27.168Z,23.40
2018-05-10T09:56:55.324Z,23.40
2018-05-10T09:59:23.506Z,23.30
2018-05-10T10:01:51.711Z,23.40
2018-05-10T10:04:19.896Z,23.40
2018-05-10T10:06:49.195Z,23.60
2018-05-10T10:09:17.424Z,23.70
2018-05-10T10:11:45.622Z,23.70
2018-05-10T10:14:14.985Z,23.80
2018-05-10T10:16:43.147Z,23.80
2018-05-10T10:19:11.357Z,23.80
2018-05-10T10:21:40.757Z,23.80
2018-05-10T10:24:08.961Z,23.80
2018-05-10T10:26:37.167Z,23.80
2018-05-10T10:29:05.393Z,23.90
2018-05-10T10:31:36.583Z,23.90
2018-05-10T10:34:05.557Z,23.90
2018-05-10T10:36:33.727Z,23.90
2018-05-10T10:39:01.934Z,23.90
2018-05-10T10:41:30.098Z,24.00
2018-05-10T10:43:59.044Z,24.20
2018-05-10T10:46:27.213Z,24.20
2018-05-10T10:48:55.886Z,24.30
2018-05-10T10:51:24.101Z,24.40
2018-05-10T10:53:52.708Z,24.50
2018-05-10T10:56:20.945Z,24.50
2018-05-10T10:58:49.113Z,24.50
2018-05-10T11:01:17.387Z,24.60
2018-05-10T11:03:45.541Z,24.50
2018-05-10T11:06:13.726Z,24.40
2018-05-10T11:08:41.993Z,24.50
2018-05-10T11:11:10.327Z,24.60
2018-05-10T11:13:39.291Z,24.80
2018-05-10T11:16:07.595Z,24.80
2018-05-10T11:18:36.722Z,25.00
2018-05-10T11:21:04.912Z,25.10
2018-05-10T11:23:33.081Z,25.20
2018-05-10T11:26:01.287Z,25.20
2018-05-10T11:28:29.459Z,25.30
2018-05-10T11:30:57.692Z,25.30
2018-05-10T11:33:27.296Z,25.20
2018-05-10T11:35:55.548Z,25.20
2018-05-10T11:38:23.866Z,25.10
2018-05-10T11:40:52.081Z,25.00
2018-05-10T11:43:20.509Z,25.10
2018-05-10T11:45:48.781Z,25.20
2018-05-10T11:48:17.024Z,25.20
2018-05-10T11:50:45.343Z,25.20
2018-05-10T11:53:13.653Z,25.30
2018-05-10T11:55:42.091Z,25.30
2018-05-10T11:58:10.416Z,25.30
2018-05-10T12:00:39.418Z,25.30
2018-05-10T12:03:07.970Z,25.30
2018-05-10T12:05:37.071Z,25.30
2018-05-10T12:08:05.770Z,25.20
2018-05-10T12:10:34.487Z,25.20
2018-05-10T12:13:02.649Z,25.20
2018-05-10T12:15:32.361Z,25.20
2018-05-10T12:18:00.520Z,25.20
2018-05-10T12:20:28.781Z,25.30
2018-05-10T12:22:56.883Z,25.30
2018-05-10T12:25:25.963Z,25.30
2018-05-10T12:27:54.090Z,25.30
2018-05-10T12:30:22.295Z,25.50
2018-05-10T12:32:50.477Z,25.50
2018-05-10T12:35:18.668Z,25.40
2018-05-10T12:37:46.840Z,25.50
2018-05-10T12:40:15.027Z,25.50
2018-05-10T12:42:43.208Z,25.50
2018-05-10T12:45:11.640Z,25.50
2018-05-10T12:47:39.805Z,25.30
2018-05-10T12:50:07.993Z,25.30
2018-05-10T12:52:36.144Z,25.40
2018-05-10T12:55:05.250Z,25.40
2018-05-10T12:57:33.452Z,25.40
2018-05-10T13:00:01.630Z,25.30
2018-05-10T13:02:30.691Z,25.30
2018-05-10T13:04:59.371Z,25.40
2018-05-10T13:07:27.616Z,25.40
2018-05-10T13:09:59.518Z,25.50
2018-05-10T13:12:27.714Z,25.60
2018-05-10T13:14:55.883Z,25.60
2018-05-10T13:17:24.074Z,25.60
2018-05-10T13:19:53.367Z,25.60
2018-05-10T13:22:22.488Z,25.60
2018-05-10T13:24:51.414Z,25.70
2018-05-10T13:27:19.668Z,25.60
2018-05-10T13:29:47.785Z,25.70
2018-05-10T13:32:15.970Z,25.80
2018-05-10T13:34:45.002Z,25.90
2018-05-10T13:37:13.946Z,25.90
2018-05-10T13:39:42.901Z,25.90
2018-05-10T13:42:11.801Z,25.90
2018-05-10T13:44:39.951Z,26.00
2018-05-10T13:47:09.042Z,26.10
2018-05-10T13:49:37.239Z,26.10
2018-05-10T13:52:05.411Z,26.20
2018-05-10T13:54:33.579Z,26.20
2018-05-10T13:57:02.610Z,26.20
2018-05-10T13:59:30.776Z,26.20
2018-05-10T14:01:59.075Z,26.30
2018-05-10T14:04:27.257Z,26.20
2018-05-10T14:06:56.448Z,26.10
2018-05-10T14:09:26.357Z,26.10
2018-05-10T14:11:54.541Z,26.10
2018-05-10T14:14:23.649Z,26.00
2018-05-10T14:16:51.879Z,25.90
2018-05-10T14:19:20.037Z,25.90
2018-05-10T14:21:48.221Z,25.80
2018-05-10T14:24:16.624Z,25.70
2018-05-10T14:26:44.832Z,25.50
2018-05-10T14:29:13.772Z,25.40
2018-05-10T14:31:41.953Z,25.30
2018-05-10T14:34:10.100Z,25.30
2018-05-10T14:36:38.281Z,25.20
2018-05-10T14:39:06.432Z,25.20
2018-05-10T14:41:35.403Z,25.10
2018-05-10T14:44:03.562Z,25.10
2018-05-10T14:46:31.752Z,25.00
2018-05-10T14:48:59.921Z,25.00
2018-05-10T14:51:28.106Z,25.00
2018-05-10T14:53:56.260Z,25.00
2018-05-10T14:56:24.444Z,25.00
2018-05-10T14:58:52.608Z,24.90
2018-05-10T15:01:20.792Z,24.80
2018-05-10T15:03:48.948Z,24.80
2018-05-10T15:06:17.132Z,24.80
2018-05-10T15:08:45.292Z,24.80
2018-05-10T15:11:13.481Z,24.70
2018-05-10T15:13:41.636Z,24.70
2018-05-10T15:16:09.796Z,24.70
2018-05-10T15:18:37.976Z,24.70
2018-05-10T15:21:06.143Z,24.60
2018-05-10T15:23:34.362Z,24.60
2018-05-10T15:26:03.069Z,24.50
2018-05-10T15:28:31.254Z,24.40
2018-05-10T15:30:59.411Z,24.40
2018-05-10T15:33:27.588Z,24.30
2018-05-10T15:35:56.508Z,24.10
2018-05-10T15:38:24.693Z,24.10
2018-05-10T15:40:53.758Z,24.10
2018-05-10T15:43:23.418Z,23.90
2018-05-10T15:45:51.825Z,23.90
2018-05-10T15:48:20.007Z,23.80
2018-05-10T15:50:48.164Z,23.80
2018-05-10T15:53:16.391Z,23.70
2018-05-10T15:55:45.812Z,23.60
2018-05-10T15:58:13.992Z,23.60
2018-05-10T16:00:42.180Z,23.50
2018-05-10T16:03:10.364Z,23.40
2018-05-10T16:05:38.884Z,23.20
2018-05-10T16:08:07.063Z,23.00
2018-05-10T16:10:35.228Z,22.70
2018-05-10T16:13:04.185Z,22.00
2018-05-10T16:15:32.359Z,22.00
2018-05-10T16:18:01.340Z,21.70
2018-05-10T16:20:30.384Z,21.30
2018-05-10T16:22:58.810Z,21.00
2018-05-10T16:25:27.432Z,20.70
2018-05-10T16:27:56.373Z,20.10
2018-05-10T16:30:25.650Z,20.10
2018-05-10T16:32:55.273Z,19.80
2018-05-10T16:35:24.357Z,19.60
2018-05-10T16:37:52.594Z,19.40
2018-05-10T16:40:21.520Z,19.10
2018-05-10T16:42:49.704Z,19.10
2018-05-10T16:45:18.454Z,19.00
2018-05-10T16:47:46.652Z,18.90
2018-05-10T16:50:14.813Z,18.70
2018-05-10T16:52:43.784Z,18.40
2018-05-10T16:55:12.776Z,18.10
2018-05-10T16:57:40.958Z,17.90
2018-05-10T17:00:09.126Z,17.80
2018-05-10T17:02:37.331Z,17.80
2018-05-10T17:05:06.363Z,17.70
2018-05-10T17:07:34.551Z,17.60
2018-05-10T17:10:02.709Z,17.60
2018-05-10T17:12:30.892Z,17.60
2018-05-10T17:14:59.092Z,17.70
2018-05-10T17:17:27.269Z,17.70
2018-05-10T17:19:56.203Z,17.60
2018-05-10T17:22:24.385Z,17.60
2018-05-10T17:24:52.549Z,17.60
2018-05-10T17:27:20.712Z,17.50
2018-05-10T17:29:48.889Z,17.50
2018-05-10T17:32:18.143Z,17.50
2018-05-10T17:34:47.384Z,17.40
2018-05-10T17:37:15.645Z,17.40
2018-05-10T17:39:43.827Z,17.30
2018-05-10T17:42:11.984Z,17.30
2018-05-10T17:44:40.932Z,17.30
2018-05-10T17:47:09.084Z,17.20
2018-05-10T17:49:37.873Z,17.20
2018-05-10T17:52:06.059Z,17.20
2018-05-10T17:54:34.242Z,17.10
2018-05-10T17:57:03.285Z,17.10
2018-05-10T17:59:31.477Z,17.00
2018-05-10T18:02:04.207Z,17.00
2018-05-10T18:04:36.725Z,17.00
2018-05-10T18:07:04.885Z,17.00
2018-05-10T18:09:33.068Z,16.90
2018-05-10T18:12:03.719Z,16.80
2018-05-10T18:14:31.921Z,16.80
2018-05-10T18:17:00.089Z,16.80
2018-05-10T18:19:28.282Z,16.80
2018-05-10T18:21:56.427Z,16.80
2018-05-10T18:24:24.608Z,16.80
2018-05-10T18:26:52.789Z,16.90
2018-05-10T18:29:21.644Z,16.80
2018-05-10T18:31:49.844Z,16.80
2018-05-10T18:34:18.021Z,16.80
2018-05-10T18:36:46.453Z,16.80
2018-05-10T18:39:15.396Z,16.80
2018-05-10T18:41:43.600Z,16.80
2018-05-10T18:44:11.795Z,16.80
2018-05-10T18:46:41.247Z,16.90
2018-05-10T18:49:09.420Z,16.80
2018-05-10T18:51:37.586Z,16.80
2018-05-10T18:54:05.787Z,16.70
2018-05-10T18:56:35.899Z,16.70
2018-05-10T18:59:04.945Z,16.70
2018-05-10T19:01:35.391Z,16.60
2018-05-10T19:04:04.229Z,16.60
2018-05-10T19:06:32.470Z,16.50
2018-05-10T19:09:00.624Z,16.50
2018-05-10T19:11:28.811Z,16.50
2018-05-10T19:13:57.791Z,16.50
2018-05-10T19:16:25.970Z,16.50
2018-05-10T19:18:54.169Z,16.50
2018-05-10T19:21:22.378Z,16.50
2018-05-10T19:23:52.516Z,16.50
2018-05-10T19:26:20.786Z,16.50
2018-05-10T19:28:49.601Z,16.50
2018-05-10T19:31:18.831Z,16.40
2018-05-10T19:33:48.967Z,16.50
2018-05-10T19:36:20.269Z,16.50
2018-05-10T19:38:49.156Z,16.50
2018-05-10T19:41:18.097Z,16.50
2018-05-10T19:43:46.364Z,16.50
2018-05-10T19:46:14.632Z,16.50
2018-05-10T19:48:45.166Z,16.40
2018-05-10T19:51:13.919Z,16.40
2018-05-10T19:53:42.801Z,16.40
2018-05-10T19:56:11.023Z,16.30
2018-05-10T19:58:40.437Z,16.30
2018-05-10T20:01:09.033Z,16.30
2018-05-10T20:03:37.215Z,16.20
2018-05-10T20:06:05.920Z,16.20
2018-05-10T20:08:34.722Z,16.10
2018-05-10T20:11:02.876Z,16.10
2018-05-10T20:13:31.030Z,16.10
2018-05-10T20:15:59.221Z,16.10
2018-05-10T20:18:28.036Z,16.10
2018-05-10T20:20:56.220Z,16.10
2018-05-10T20:23:24.412Z,16.10
2018-05-10T20:25:52.594Z,16.10
2018-05-10T20:28:20.801Z,16.10
2018-05-10T20:30:48.952Z,16.10
2018-05-10T20:33:17.966Z,16.10
2018-05-10T20:35:46.144Z,16.10
2018-05-10T20:38:15.073Z,16.00
2018-05-10T20:40:43.248Z,16.00
2018-05-10T20:43:11.440Z,16.00
2018-05-10T20:45:40.389Z,16.00
2018-05-10T20:48:10.338Z,16.00
2018-05-10T20:50:38.516Z,16.00
2018-05-10T20:53:06.673Z,16.00
2018-05-10T20:55:34.856Z,16.00
2018-05-10T20:58:03.009Z,16.00
2018-05-10T21:00:32.376Z,16.00
2018-05-10T21:03:00.533Z,16.00
2018-05-10T21:05:28.715Z,16.00
2018-05-10T21:07:56.877Z,16.00
2018-05-10T21:10:26.546Z,16.00
2018-05-10T21:12:56.623Z,16.00
2018-05-10T21:15:24.804Z,16.00
2018-05-10T21:17:54.405Z,16.10
2018-05-10T21:20:22.593Z,16.10
2018-05-10T21:22:51.701Z,16.10
2018-05-10T21:25:20.496Z,16.10
2018-05-10T21:27:48.660Z,16.10
2018-05-10T21:30:17.439Z,16.10
2018-05-10T21:32:45.601Z,16.10
2018-05-10T21:35:13.779Z,16.10
2018-05-10T21:37:41.954Z,16.10
2018-05-10T21:40:10.146Z,16.00
2018-05-10T21:42:39.063Z,15.90
2018-05-10T21:45:07.240Z,15.90
2018-05-10T21:47:35.394Z,15.80
2018-05-10T21:50:05.966Z,15.70
2018-05-10T21:52:34.135Z,15.70
2018-05-10T21:55:02.346Z,15.60
2018-05-10T21:57:31.143Z,15.50
2018-05-10T21:59:59.328Z,15.50
2018-05-10T22:02:27.485Z,15.40
2018-05-10T22:04:55.691Z,15.40
2018-05-10T22:07:23.849Z,15.30
2018-05-10T22:09:52.020Z,15.30
2018-05-10T22:12:20.212Z,15.20
2018-05-10T22:14:48.886Z,15.20
2018-05-10T22:17:17.652Z,15.20
2018-05-10T22:19:45.839Z,15.20
2018-05-10T22:22:14.018Z,15.20
2018-05-10T22:24:42.180Z,15.20
2018-05-10T22:27:11.134Z,15.10
2018-05-10T22:29:39.294Z,15.10
2018-05-10T22:32:07.484Z,15.20
2018-05-10T22:34:35.656Z,15.10
2018-05-10T22:37:03.864Z,15.10
2018-05-10T22:39:32.012Z,15.00
2018-05-10T22:42:00.210Z,15.00
2018-05-10T22:44:28.421Z,15.00
2018-05-10T22:46:56.555Z,15.00
2018-05-10T22:49:24.712Z,15.00
2018-05-10T22:51:52.888Z,14.90
2018-05-10T22:54:21.042Z,14.90
2018-05-10T22:56:49.219Z,14.80
2018-05-10T22:59:17.895Z,14.80
2018-05-10T23:01:46.073Z,14.80
2018-05-10T23:04:14.228Z,14.80
2018-05-10T23:06:42.408Z,14.70
2018-05-10T23:09:10.569Z,14.70
2018-05-10T23:11:38.753Z,14.70
2018-05-10T23:14:06.914Z,14.70
2018-05-10T23:16:35.093Z,14.60
2018-05-10T23:19:03.251Z,14.50
2018-05-10T23:21:31.428Z,14.50
2018-05-10T23:23:59.588Z,14.40
2018-05-10T23:26:28.533Z,14.20
2018-05-10T23:28:56.688Z,14.20
2018-05-10T23:31:24.870Z,14.20
2018-05-10T23:33:53.032Z,14.10
2018-05-10T23:36:21.208Z,14.10
2018-05-10T23:38:49.366Z,14.00
2018-05-10T23:41:17.557Z,14.00
2018-05-10T23:43:45.717Z,13.90
2018-05-10T23:46:13.888Z,13.90
2018-05-10T23:48:42.050Z,13.80
2018-05-10T23:51:10.324Z,13.80
2018-05-10T23:53:39.124Z,13.70
2018-05-10T23:56:07.304Z,13.60
2018-05-10T23:58:35.452Z,13.60
